Time;durP1;ratioP1;P1;durP2;ratioP2;P2;SDS_P1;SDS_P2;PMS_P1;PMS_P2;Temp;Humidity;BMP_temperature;BMP_pressure;BME280_temperature;BME280_humidity;BME280_pressure;Samples;Min_cycle;Max_cycle;Signal;HPM_P1;HPM_P2
2023/07/01 00:04:20;;;;;;;14.13;8.35;;;;;;;18.55;83.72;97166.81;10554635;28;20054;-74
2023/07/01 00:09:41;;;;;;;15.05;8.32;;;;;;;18.58;83.61;97171.84;10556719;27;20496;-76
2023/07/01 00:15:02;;;;;;;16.40;9.07;;;;;;;18.62;83.13;97170.50;10610832;27;20039;-76
2023/07/01 00:20:26;;;;;;;13.13;8.63;;;;;;;18.53;83.63;97161.81;10610952;27;20065;-75
2023/07/01 00:25:47;;;;;;;14.73;8.73;;;;;;;18.58;83.74;97169.00;10567067;28;20181;-75
2023/07/01 00:31:07;;;;;;;11.60;8.13;;;;;;;18.59;83.52;97161.97;10567915;28;20114;-74
2023/07/01 00:36:28;;;;;;;13.82;8.18;;;;;;;18.56;83.41;97160.47;10539488;28;20046;-75
2023/07/01 00:41:53;;;;;;;13.90;8.60;;;;;;;18.52;83.62;97160.34;10608330;27;20234;-74
2023/07/01 00:47:13;;;;;;;13.10;8.95;;;;;;;18.53;83.98;97152.63;10594298;27;20464;-75
2023/07/01 00:52:34;;;;;;;12.93;8.75;;;;;;;18.55;83.88;97153.41;10578994;27;20457;-76
2023/07/01 00:57:55;;;;;;;16.60;8.57;;;;;;;18.59;84.08;97153.50;10595031;27;20169;-75
2023/07/01 01:03:39;;;;;;;14.65;7.95;;;;;;;18.62;84.24;97151.44;10568600;27;20079;-75
2023/07/01 01:09:09;;;;;;;;;;;;;;;18.57;84.29;97147.78;10597256;27;20136;-75
2023/07/01 01:14:29;;;;;;;15.73;9.02;;;;;;;18.52;83.92;97143.41;10609388;27;20009;-75
2023/07/01 01:20:00;;;;;;;12.23;9.00;;;;;;;18.52;84.00;97149.06;10577104;27;20059;-75
2023/07/01 01:25:29;;;;;;;14.80;9.85;;;;;;;18.48;84.12;97142.59;10593485;28;20046;-74
2023/07/01 01:30:50;;;;;;;16.33;10.00;;;;;;;18.44;84.22;97145.31;10581130;28;20066;-74
2023/07/01 01:36:31;;;;;;;15.40;9.95;;;;;;;18.46;84.59;97145.38;10553247;28;20070;-75
2023/07/01 01:42:17;;;;;;;17.67;10.35;;;;;;;18.45;84.63;97144.66;10556398;28;20147;-75
2023/07/01 01:47:38;;;;;;;17.25;9.55;;;;;;;18.45;84.58;97136.16;10586079;28;20120;-76
2023/07/01 01:52:58;;;;;;;16.40;9.85;;;;;;;18.43;84.95;97130.47;10537222;28;20050;-75
2023/07/01 01:58:19;;;;;;;16.83;10.88;;;;;;;18.41;84.68;97143.81;10565729;28;20070;-73
2023/07/01 02:03:40;;;;;;;17.48;10.93;;;;;;;18.39;85.20;97144.47;10550795;28;20127;-75
2023/07/01 02:09:03;;;;;;;17.13;10.13;;;;;;;18.33;84.91;97130.16;10585730;28;20505;-75
2023/07/01 02:14:24;;;;;;;17.02;9.80;;;;;;;18.39;85.19;97127.50;10607884;28;20110;-75
2023/07/01 02:19:45;;;;;;;14.57;9.68;;;;;;;18.38;85.30;97134.56;10610712;27;20046;-75
2023/07/01 02:25:07;;;;;;;14.45;9.02;;;;;;;18.35;85.71;97135.91;10550736;28;20068;-75
2023/07/01 02:30:28;;;;;;;12.95;8.65;;;;;;;18.31;86.04;97136.50;10584338;27;20067;-75
2023/07/01 02:35:51;;;;;;;13.75;8.63;;;;;;;18.25;85.47;97138.44;10533612;27;20044;-74
2023/07/01 02:41:12;;;;;;;12.23;8.27;;;;;;;18.27;85.88;97144.13;10572513;27;20063;-74
2023/07/01 02:46:32;;;;;;;13.43;8.35;;;;;;;18.26;86.30;97139.88;10557664;27;20039;-73
2023/07/01 02:51:53;;;;;;;13.00;8.60;;;;;;;18.26;86.25;97137.78;10569355;27;20063;-74
2023/07/01 02:57:14;;;;;;;14.32;8.85;;;;;;;18.21;86.65;97127.72;10571692;28;20154;-74
2023/07/01 03:02:35;;;;;;;16.10;10.05;;;;;;;18.18;86.54;97136.81;10591333;27;20047;-73
2023/07/01 03:07:57;;;;;;;16.08;9.70;;;;;;;18.12;86.96;97143.00;10570917;28;20039;-74
2023/07/01 03:13:18;;;;;;;14.43;10.05;;;;;;;18.15;86.92;97138.88;10557994;27;20071;-74
2023/07/01 03:18:39;;;;;;;15.95;10.85;;;;;;;18.20;87.14;97134.78;10542176;27;20138;-74
2023/07/01 03:24:00;;;;;;;17.63;11.68;;;;;;;18.16;86.85;97137.50;10614354;27;20071;-74
2023/07/01 03:29:21;;;;;;;20.15;12.35;;;;;;;18.07;86.86;97140.75;10598565;27;20046;-73
2023/07/01 03:34:42;;;;;;;17.83;11.50;;;;;;;18.12;87.04;97143.00;10596191;27;20089;-74
2023/07/01 03:40:04;;;;;;;18.45;11.95;;;;;;;18.20;87.31;97143.25;10597538;27;20397;-74
2023/07/01 03:45:25;;;;;;;18.30;11.43;;;;;;;18.30;87.37;97151.28;10597948;27;20043;-75
2023/07/01 03:50:45;;;;;;;20.85;11.85;;;;;;;18.45;87.48;97143.94;10579436;28;20128;-75
2023/07/01 03:56:07;;;;;;;18.15;10.88;;;;;;;18.54;87.00;97151.25;10555606;27;20039;-75
2023/07/01 04:01:28;;;;;;;17.45;11.75;;;;;;;18.56;86.60;97151.28;10584828;27;20153;-75
2023/07/01 04:06:54;;;;;;;17.42;12.00;;;;;;;18.58;86.74;97157.00;10541389;28;20501;-74
2023/07/01 04:12:16;;;;;;;22.52;12.23;;;;;;;18.71;86.94;97158.78;10555124;28;20046;-75
2023/07/01 04:17:42;;;;;;;18.83;12.63;;;;;;;18.84;86.27;97148.53;10556002;28;20047;-75
2023/07/01 04:23:03;;;;;;;17.35;11.93;;;;;;;18.86;86.23;97146.44;10554973;27;20382;-74
2023/07/01 04:28:24;;;;;;;19.15;11.65;;;;;;;19.05;86.30;97146.91;10583283;28;20219;-74
2023/07/01 04:33:45;;;;;;;20.35;11.70;;;;;;;19.32;85.82;97142.63;10589893;27;20115;-75
2023/07/01 04:39:06;;;;;;;20.00;12.10;;;;;;;19.44;84.88;97143.63;10603673;27;20042;-75
2023/07/01 04:44:26;;;;;;;19.67;12.35;;;;;;;19.37;84.35;97144.16;10624307;27;20077;-74
2023/07/01 04:49:47;;;;;;;16.30;11.18;;;;;;;19.40;84.43;97140.00;10610128;27;20153;-75
2023/07/01 04:55:07;;;;;;;21.77;12.60;;;;;;;19.28;84.34;97140.41;10605716;27;20121;-75
2023/07/01 05:00:29;;;;;;;19.45;12.38;;;;;;;19.08;84.39;97145.56;10603309;27;20069;-74
2023/07/01 05:05:49;;;;;;;18.77;12.88;;;;;;;19.13;84.37;97136.53;10558732;28;20051;-74
2023/07/01 05:11:10;;;;;;;20.17;12.55;;;;;;;19.69;83.85;97133.59;10572548;27;20040;-75
2023/07/01 05:16:31;;;;;;;19.92;12.68;;;;;;;20.45;82.53;97140.81;10609112;27;20035;-75
2023/07/01 05:21:53;;;;;;;17.10;11.55;;;;;;;21.20;80.89;97142.16;10604746;27;20126;-74
2023/07/01 05:27:14;;;;;;;17.25;10.27;;;;;;;21.74;78.83;97129.53;10594651;28;20388;-75
2023/07/01 05:32:34;;;;;;;13.93;10.25;;;;;;;22.34;77.31;97132.44;10602666;28;20042;-74
2023/07/01 05:37:55;;;;;;;13.98;9.10;;;;;;;22.86;75.52;97137.28;10602934;28;20035;-75
2023/07/01 05:43:16;;;;;;;13.38;9.93;;;;;;;23.45;73.57;97145.59;10577229;28;20078;-75
2023/07/01 05:48:36;;;;;;;15.43;10.27;;;;;;;24.08;71.18;97137.47;10592184;28;20059;-75
2023/07/01 05:53:57;;;;;;;14.60;10.18;;;;;;;24.31;69.94;97141.84;10607291;27;20035;-75
2023/07/01 05:59:18;;;;;;;14.77;11.18;;;;;;;23.70;67.87;97147.94;10629915;27;20066;-75
2023/07/01 06:04:39;;;;;;;14.32;10.90;;;;;;;23.19;67.46;97158.22;10573167;28;20076;-74
2023/07/01 06:09:59;;;;;;;15.93;11.73;;;;;;;22.39;66.34;97155.94;10630546;27;20122;-75
2023/07/01 06:15:20;;;;;;;18.15;12.43;;;;;;;22.55;66.74;97162.53;10611523;27;20064;-74
2023/07/01 06:20:41;;;;;;;16.08;11.05;;;;;;;23.59;65.75;97168.53;10604702;27;20119;-74
2023/07/01 06:26:04;;;;;;;16.40;10.70;;;;;;;25.21;63.10;97162.78;10615594;27;20047;-75
2023/07/01 06:31:25;;;;;;;13.07;9.93;;;;;;;26.23;60.53;97163.38;10595220;27;20111;-75
2023/07/01 06:36:46;;;;;;;14.18;10.68;;;;;;;26.81;55.99;97161.00;10628360;27;20080;-75
2023/07/01 06:42:07;;;;;;;14.25;9.75;;;;;;;26.60;54.83;97156.81;10584251;27;20074;-75
2023/07/01 06:47:28;;;;;;;16.15;10.15;;;;;;;26.99;53.67;97165.88;10600357;27;20062;-75
2023/07/01 06:52:49;;;;;;;13.18;9.90;;;;;;;27.55;50.90;97170.50;10577656;27;20063;-74
2023/07/01 06:58:10;;;;;;;11.43;8.43;;;;;;;27.33;48.91;97180.00;10620308;27;20043;-73
2023/07/01 07:03:31;;;;;;;13.68;8.20;;;;;;;27.89;48.07;97180.97;10603610;27;20074;-73
2023/07/01 07:08:51;;;;;;;14.25;7.97;;;;;;;28.38;45.83;97179.78;10596384;27;20063;-73
2023/07/01 07:14:12;;;;;;;10.07;6.40;;;;;;;28.38;43.78;97174.75;10590126;27;20035;-71
2023/07/01 07:19:33;;;;;;;10.43;7.32;;;;;;;29.06;42.56;97178.16;10607974;27;20035;-74
2023/07/01 07:24:55;;;;;;;8.20;6.20;;;;;;;28.87;40.01;97173.41;10584070;27;20076;-74
2023/07/01 07:30:16;;;;;;;8.45;6.05;;;;;;;28.76;40.22;97164.91;10594174;27;20063;-71
2023/07/01 07:35:37;;;;;;;8.75;4.80;;;;;;;29.25;39.19;97164.22;10597365;27;20130;-73
2023/07/01 07:41:00;;;;;;;8.77;5.15;;;;;;;29.67;38.01;97162.13;10575246;27;20081;-75
2023/07/01 07:46:20;;;;;;;10.45;5.50;;;;;;;30.06;36.37;97155.66;10578804;27;20481;-75
2023/07/01 07:51:41;;;;;;;7.32;4.80;;;;;;;30.42;35.62;97157.16;10584039;27;20066;-73
2023/07/01 07:57:02;;;;;;;5.95;4.38;;;;;;;30.92;34.45;97154.66;10574739;27;20035;-71
2023/07/01 08:02:25;;;;;;;7.45;4.40;;;;;;;30.98;33.36;97152.34;10562337;27;20071;-74
2023/07/01 08:07:46;;;;;;;5.35;4.10;;;;;;;30.94;32.71;97154.59;10568555;27;20112;-70
2023/07/01 08:13:07;;;;;;;4.95;3.83;;;;;;;30.99;32.25;97142.25;10567349;27;20054;-70
2023/07/01 08:18:28;;;;;;;7.77;3.97;;;;;;;31.34;31.54;97150.09;10561807;27;20458;-74
2023/07/01 08:23:49;;;;;;;7.23;3.50;;;;;;;30.79;32.17;97148.47;10595953;27;20096;-71
2023/07/01 08:29:12;;;;;;;4.53;3.03;;;;;;;31.39;31.27;97139.88;10609607;27;20059;-74
2023/07/01 08:34:35;;;;;;;5.25;3.38;;;;;;;31.28;30.39;97135.84;10594571;27;20065;-74
2023/07/01 08:39:56;;;;;;;4.78;3.22;;;;;;;31.64;29.06;97145.72;10603021;27;20046;-75
2023/07/01 08:45:20;;;;;;;7.63;2.90;;;;;;;30.69;29.37;97135.00;10600914;27;20046;-73
2023/07/01 08:51:08;;;;;;;5.40;3.00;;;;;;;30.56;29.27;97141.72;10557210;28;20044;-74
2023/07/01 08:56:28;;;;;;;3.50;2.30;;;;;;;30.30;29.10;97135.06;10582519;28;20082;-75
2023/07/01 09:01:49;;;;;;;3.60;2.00;;;;;;;30.73;28.14;97122.66;10552791;28;20050;-75
2023/07/01 09:07:10;;;;;;;4.90;1.98;;;;;;;31.57;27.84;97119.22;10566519;28;20529;-74
2023/07/01 09:12:31;;;;;;;4.05;1.83;;;;;;;31.74;26.83;97118.78;10581621;28;20470;-75
2023/07/01 09:17:52;;;;;;;3.87;1.80;;;;;;;31.13;27.45;97120.31;10566687;28;20097;-75
2023/07/01 09:23:38;;;;;;;4.47;1.80;;;;;;;31.60;26.81;97108.34;10552006;28;20747;-75
2023/07/01 09:29:07;;;;;;;2.53;1.48;;;;;;;31.46;25.81;97102.94;10554415;28;20043;-75
2023/07/01 09:34:28;;;;;;;4.00;1.58;;;;;;;31.12;25.73;97107.38;10552299;28;20072;-75
2023/07/01 09:39:50;;;;;;;;;;;;;;;31.36;24.48;97103.91;10552501;28;20177;-75
2023/07/01 09:45:11;;;;;;;2.03;1.58;;;;;;;31.38;24.76;97098.09;10565959;28;19965;-74
2023/07/01 09:50:33;;;;;;;1.98;1.35;;;;;;;30.74;24.47;97098.16;10551613;28;20048;-75
2023/07/01 09:55:54;;;;;;;2.55;1.52;;;;;;;31.08;24.54;97087.28;10551434;28;20066;-75
2023/07/01 10:01:16;;;;;;;4.00;1.47;;;;;;;31.42;24.10;97077.81;10551680;28;20058;-75
2023/07/01 10:06:37;;;;;;;5.65;2.00;;;;;;;31.74;23.34;97078.41;10547731;28;20285;-74
2023/07/01 10:11:58;;;;;;;3.22;2.05;;;;;;;31.37;23.84;97081.56;10551392;28;20048;-75
2023/07/01 10:17:19;;;;;;;3.75;1.90;;;;;;;31.43;23.69;97079.22;10546069;28;20052;-75
2023/07/01 10:22:51;;;;;;;;;;;;;;;32.47;22.68;97071.31;10537661;28;20039;-75
2023/07/01 10:28:13;;;;;;;5.70;2.38;;;;;;;33.24;22.53;97068.16;10564969;28;19919;-73
2023/07/01 10:33:35;;;;;;;4.18;2.20;;;;;;;33.13;21.85;97063.50;10561204;28;20093;-73
2023/07/01 10:39:33;;;;;;;8.18;2.40;;;;;;;33.66;21.84;97055.94;10564682;28;20044;-74
2023/07/01 10:44:53;;;;;;;4.38;2.00;;;;;;;33.96;21.46;97057.75;10587346;28;20067;-74
2023/07/01 10:50:14;;;;;;;3.38;2.13;;;;;;;33.96;21.50;97037.50;10587309;28;20501;-73
2023/07/01 10:55:35;;;;;;;3.08;2.13;;;;;;;33.51;20.46;97053.56;10540542;28;20448;-74
2023/07/01 11:00:57;;;;;;;4.28;2.42;;;;;;;32.63;21.53;97034.75;10586872;28;20043;-74
2023/07/01 11:06:18;;;;;;;4.50;2.58;;;;;;;33.43;21.32;97035.75;10565100;28;20052;-74
2023/07/01 11:11:39;;;;;;;4.82;2.30;;;;;;;33.50;20.92;97031.19;10571146;28;20067;-73
2023/07/01 11:17:06;;;;;;;5.07;2.58;;;;;;;33.57;20.68;97020.78;10556951;28;20043;-74
2023/07/01 11:22:27;;;;;;;3.72;2.05;;;;;;;33.56;20.80;97013.59;10570769;28;20454;-74
2023/07/01 11:27:48;;;;;;;4.78;2.03;;;;;;;33.41;20.68;97019.19;10554831;28;20047;-74
2023/07/01 11:33:16;;;;;;;5.72;2.03;;;;;;;32.84;21.41;97012.41;10556263;28;20036;-74
2023/07/01 11:38:37;;;;;;;4.85;1.67;;;;;;;32.82;21.09;96998.00;10570893;28;20393;-74
2023/07/01 11:43:57;;;;;;;3.00;1.58;;;;;;;32.03;21.24;97003.31;10541738;28;20043;-74
2023/07/01 11:49:21;;;;;;;4.03;2.28;;;;;;;31.50;21.98;96999.72;10584851;28;20036;-74
2023/07/01 11:54:47;;;;;;;3.55;1.92;;;;;;;31.62;22.15;96992.91;10569057;28;20067;-73
2023/07/01 12:00:09;;;;;;;5.03;2.08;;;;;;;31.68;22.13;96989.16;10547824;28;20105;-74
2023/07/01 12:05:34;;;;;;;3.67;2.50;;;;;;;32.08;22.09;96993.06;10550855;28;20059;-74
2023/07/01 12:10:55;;;;;;;4.68;2.83;;;;;;;32.09;21.62;96983.66;10583980;28;20112;-74
2023/07/01 12:16:16;;;;;;;4.60;3.07;;;;;;;31.59;21.45;96980.03;10568631;28;20478;-74
2023/07/01 12:21:37;;;;;;;7.40;3.00;;;;;;;31.31;22.00;96964.94;10540399;28;20293;-74
2023/07/01 12:27:02;;;;;;;7.53;3.27;;;;;;;30.71;23.10;96972.94;10554030;28;20044;-74
2023/07/01 12:32:24;;;;;;;5.72;3.08;;;;;;;30.49;23.07;96963.34;10562806;28;20035;-74
2023/07/01 12:37:45;;;;;;;4.70;3.00;;;;;;;30.98;23.11;96947.78;10567917;28;20043;-74
2023/07/01 12:43:07;;;;;;;6.80;3.10;;;;;;;30.89;23.08;96952.34;10582736;28;20039;-73
2023/07/01 12:48:27;;;;;;;;;;;;;;;30.59;22.58;96944.41;10554196;28;20115;-74
2023/07/01 12:53:49;;;;;;;6.07;2.97;;;;;;;30.40;23.55;96944.13;10551460;28;19988;-74
2023/07/01 12:59:21;;;;;;;;;;;;;;;30.32;23.01;96922.03;10569053;28;20040;-74
2023/07/01 13:04:42;;;;;;;6.88;2.75;;;;;;;30.34;23.59;96924.84;10533138;28;20366;-74
2023/07/01 13:10:03;;;;;;;5.43;3.00;;;;;;;30.12;23.49;96916.75;10539575;28;20412;-74
2023/07/01 13:15:32;;;;;;;3.60;2.10;;;;;;;30.43;23.41;96916.72;10524645;28;20481;-74
2023/07/01 13:20:53;;;;;;;4.40;2.20;;;;;;;30.38;23.22;96919.00;10510672;28;20048;-74
2023/07/01 13:26:13;;;;;;;3.88;1.75;;;;;;;30.39;23.36;96913.94;10539412;28;20071;-74
2023/07/01 13:31:34;;;;;;;4.53;2.20;;;;;;;30.61;23.61;96906.94;10510477;28;20063;-74
2023/07/01 13:36:55;;;;;;;4.90;1.80;;;;;;;30.99;23.27;96905.25;10537961;28;20056;-74
2023/07/01 13:42:19;;;;;;;3.22;1.58;;;;;;;30.24;23.15;96907.81;10509869;28;20047;-74
2023/07/01 13:47:46;;;;;;;3.65;1.27;;;;;;;30.11;23.08;96900.94;10496357;28;20044;-74
2023/07/01 13:53:09;;;;;;;4.22;1.77;;;;;;;29.68;23.83;96889.66;10538978;28;20040;-74
2023/07/01 13:58:30;;;;;;;;;;;;;;;29.77;23.84;96882.28;10524184;28;20040;-74
2023/07/01 14:03:59;;;;;;;3.47;1.58;;;;;;;29.31;24.22;96885.34;10538950;28;19927;-74
2023/07/01 14:09:22;;;;;;;2.78;1.45;;;;;;;29.29;24.78;96871.03;10553680;28;20067;-74
2023/07/01 14:14:43;;;;;;;3.53;1.80;;;;;;;29.40;24.62;96862.91;10552823;28;20070;-74
2023/07/01 14:20:04;;;;;;;2.47;1.53;;;;;;;28.54;25.31;96874.56;10545699;28;20050;-74
2023/07/01 14:25:32;;;;;;;3.20;1.50;;;;;;;28.21;25.84;96858.59;10544979;28;20384;-74
2023/07/01 14:31:00;;;;;;;3.10;1.40;;;;;;;27.90;26.96;96857.66;10559304;28;20097;-74
2023/07/01 14:36:28;;;;;;;2.58;1.33;;;;;;;28.00;26.83;96848.19;10572879;28;20511;-74
2023/07/01 14:41:49;;;;;;;3.75;1.77;;;;;;;27.98;27.07;96839.59;10572697;28;20043;-73
2023/07/01 14:47:10;;;;;;;3.05;1.83;;;;;;;28.15;26.90;96837.88;10558367;28;20054;-74
2023/07/01 14:52:31;;;;;;;4.43;1.92;;;;;;;27.86;26.89;96846.94;10544031;28;20362;-74
2023/07/01 14:57:52;;;;;;;2.35;1.40;;;;;;;28.16;26.94;96839.31;10543718;28;20538;-74
2023/07/01 15:03:12;;;;;;;4.07;1.67;;;;;;;28.47;26.77;96831.66;10557364;28;20108;-74
2023/07/01 15:08:33;;;;;;;5.30;1.85;;;;;;;28.64;26.93;96837.06;10586651;28;20043;-74
2023/07/01 15:13:54;;;;;;;5.05;2.10;;;;;;;28.57;26.62;96830.75;10557375;28;20096;-74
2023/07/01 15:19:15;;;;;;;4.00;2.20;;;;;;;28.46;26.65;96835.22;10570899;28;20433;-73
2023/07/01 15:24:36;;;;;;;7.43;2.58;;;;;;;28.38;26.66;96829.66;10571202;28;20044;-73
2023/07/01 15:29:56;;;;;;;4.65;2.60;;;;;;;28.28;26.77;96824.81;10569607;28;20052;-74
2023/07/01 15:35:17;;;;;;;3.95;2.30;;;;;;;28.38;26.77;96815.31;10570611;28;20052;-73
2023/07/01 15:40:48;;;;;;;3.92;2.50;;;;;;;27.94;26.81;96811.69;10571857;28;20542;-73
2023/07/01 15:46:09;;;;;;;6.07;2.72;;;;;;;27.65;27.12;96814.25;10570186;28;20247;-73
2023/07/01 15:51:30;;;;;;;7.25;3.08;;;;;;;27.25;27.48;96815.53;10585119;28;20046;-73
2023/07/01 15:56:51;;;;;;;5.22;2.90;;;;;;;26.91;27.47;96803.03;10541253;28;20085;-73
2023/07/01 16:02:11;;;;;;;5.97;3.13;;;;;;;26.64;27.48;96804.78;10569118;28;20043;-72
2023/07/01 16:07:51;;;;;;;7.95;4.03;;;;;;;26.49;27.55;96796.34;10550642;28;20036;-73
2023/07/01 16:13:27;;;;;;;5.13;3.55;;;;;;;26.16;28.19;96803.78;10543626;28;20047;-73
2023/07/01 16:18:48;;;;;;;5.05;3.22;;;;;;;26.27;28.31;96802.25;10568513;28;20070;-72
2023/07/01 16:24:35;;;;;;;6.43;3.75;;;;;;;26.10;28.59;96792.41;10554133;28;20063;-73
2023/07/01 16:29:59;;;;;;;4.50;3.40;;;;;;;25.76;28.66;96796.25;10582112;28;20043;-73
2023/07/01 16:35:39;;;;;;;5.05;3.22;;;;;;;25.59;28.81;96795.63;10567899;28;20044;-73
2023/07/01 16:41:00;;;;;;;5.13;3.00;;;;;;;25.48;29.28;96792.13;10553165;28;20544;-73
2023/07/01 16:46:27;;;;;;;6.53;3.33;;;;;;;25.22;29.30;96789.41;10553107;28;20051;-73
2023/07/01 16:51:48;;;;;;;8.35;3.30;;;;;;;25.27;29.25;96790.81;10553347;28;20489;-73
2023/07/01 16:57:09;;;;;;;6.32;3.28;;;;;;;25.44;29.23;96786.44;10567063;28;20085;-73
2023/07/01 17:02:32;;;;;;;4.85;3.28;;;;;;;25.49;29.37;96787.13;10539977;28;20059;-73
2023/07/01 17:07:55;;;;;;;7.97;3.30;;;;;;;25.39;29.68;96782.19;10581516;28;20542;-73
2023/07/01 17:13:41;;;;;;;5.22;2.92;;;;;;;25.54;29.84;96782.78;10553109;28;20043;-72
2023/07/01 17:19:02;;;;;;;4.00;2.88;;;;;;;25.62;29.43;96785.59;10552220;28;20036;-73
2023/07/01 17:24:23;;;;;;;5.05;3.22;;;;;;;25.81;29.71;96784.06;10551684;28;20043;-72
2023/07/01 17:29:45;;;;;;;3.80;2.50;;;;;;;25.91;29.41;96780.41;10566138;28;20060;-72
2023/07/01 17:35:15;;;;;;;4.72;2.92;;;;;;;25.92;29.52;96784.69;10581242;28;20039;-72
2023/07/01 17:40:36;;;;;;;8.48;2.78;;;;;;;25.74;29.41;96788.38;10552856;28;20046;-72
2023/07/01 17:45:57;;;;;;;6.53;3.13;;;;;;;25.67;29.73;96786.97;10559867;28;20046;-73
2023/07/01 17:51:18;;;;;;;4.18;2.83;;;;;;;25.64;30.06;96782.72;10556253;28;20040;-73
2023/07/01 17:56:38;;;;;;;5.63;2.83;;;;;;;25.47;30.24;96787.81;10574105;28;20063;-72
2023/07/01 18:01:59;;;;;;;4.57;3.05;;;;;;;25.22;30.14;96780.84;10574102;28;20047;-73
2023/07/01 18:07:20;;;;;;;6.40;3.25;;;;;;;25.01;30.73;96778.06;10531851;28;20075;-72
2023/07/01 18:12:41;;;;;;;6.60;3.00;;;;;;;24.79;30.72;96781.72;10588871;28;20043;-72
2023/07/01 18:18:02;;;;;;;9.73;3.55;;;;;;;24.59;30.99;96778.22;10573495;28;20039;-73
2023/07/01 18:23:24;;;;;;;7.30;2.97;;;;;;;24.47;31.49;96784.69;10545331;28;20068;-72
2023/07/01 18:28:45;;;;;;;6.57;3.08;;;;;;;24.35;31.73;96781.84;10588016;28;20051;-73
2023/07/01 18:34:06;;;;;;;7.30;2.97;;;;;;;24.24;31.89;96779.00;10558989;28;20070;-73
2023/07/01 18:39:27;;;;;;;5.93;3.08;;;;;;;24.18;32.13;96784.69;10558294;28;20063;-72
2023/07/01 18:44:47;;;;;;;5.15;2.65;;;;;;;24.10;32.12;96781.84;10558090;28;20067;-72
2023/07/01 18:50:09;;;;;;;6.95;2.80;;;;;;;24.06;32.37;96779.03;10587130;28;20063;-73
2023/07/01 18:55:29;;;;;;;5.30;3.30;;;;;;;23.99;32.35;96794.69;10543901;28;20043;-72
2023/07/01 19:00:50;;;;;;;6.75;3.88;;;;;;;23.86;32.62;96784.72;10570398;28;20068;-73
2023/07/01 19:06:11;;;;;;;4.93;3.33;;;;;;;23.75;32.85;96794.69;10556981;28;20059;-73
2023/07/01 19:11:31;;;;;;;6.28;3.53;;;;;;;23.67;33.08;96795.41;10543123;28;20047;-73
2023/07/01 19:16:55;;;;;;;6.10;3.22;;;;;;;23.62;33.17;96800.38;10570706;28;20071;-73
2023/07/01 19:22:22;;;;;;;5.38;3.60;;;;;;;23.54;33.19;96806.03;10570700;28;20115;-73
2023/07/01 19:27:42;;;;;;;4.30;3.13;;;;;;;23.50;33.55;96800.31;10570781;28;20189;-74
2023/07/01 19:33:04;;;;;;;4.97;3.17;;;;;;;23.45;33.44;96812.41;10570527;28;20074;-73
2023/07/01 19:38:24;;;;;;;5.78;3.20;;;;;;;23.35;33.79;96813.09;10542016;28;20039;-73
2023/07/01 19:43:50;;;;;;;5.15;3.38;;;;;;;23.28;34.01;96817.38;10569914;28;20063;-73
2023/07/01 19:49:11;;;;;;;6.30;3.10;;;;;;;23.18;34.30;96823.75;10570716;28;20509;-73
2023/07/01 19:54:32;;;;;;;6.97;3.25;;;;;;;23.09;34.37;96828.69;10527426;28;20119;-73
2023/07/01 19:59:52;;;;;;;4.93;2.97;;;;;;;23.04;34.59;96832.94;10555315;28;20040;-73
2023/07/01 20:05:13;;;;;;;6.35;3.00;;;;;;;22.97;34.82;96831.50;10554954;28;20122;-73
2023/07/01 20:10:34;;;;;;;8.68;3.03;;;;;;;22.85;34.91;96834.97;10555154;28;20059;-72
2023/07/01 20:15:54;;;;;;;5.07;3.20;;;;;;;22.77;35.52;96831.34;10554535;28;20074;-72
2023/07/01 20:21:15;;;;;;;5.22;3.00;;;;;;;22.65;35.69;96828.44;10583969;28;20414;-73
2023/07/01 20:26:35;;;;;;;9.23;3.10;;;;;;;22.61;36.00;96846.22;10568587;28;20072;-73
2023/07/01 20:31:56;;;;;;;4.82;2.85;;;;;;;22.59;36.22;96854.72;10540135;28;20042;-72
2023/07/01 20:37:17;;;;;;;6.15;3.00;;;;;;;22.50;36.47;96861.78;10553738;28;20481;-73
2023/07/01 20:42:37;;;;;;;4.50;2.67;;;;;;;22.40;36.98;96861.72;10553534;28;20089;-72
2023/07/01 20:47:58;;;;;;;3.38;2.00;;;;;;;22.27;37.42;96869.41;10553620;28;20052;-72
2023/07/01 20:53:19;;;;;;;3.67;2.40;;;;;;;22.16;38.06;96865.78;10567469;28;20040;-73
2023/07/01 20:58:39;;;;;;;5.70;2.50;;;;;;;22.08;37.96;96867.84;10552824;28;20044;-73
2023/07/01 21:04:00;;;;;;;4.85;2.55;;;;;;;21.98;38.76;96866.31;10553224;28;20052;-73
2023/07/01 21:09:21;;;;;;;4.20;2.10;;;;;;;21.91;38.98;96862.00;10538927;28;20063;-72
2023/07/01 21:14:42;;;;;;;7.03;2.28;;;;;;;21.80;39.24;96868.97;10566804;28;20069;-72
2023/07/01 21:20:03;;;;;;;7.53;1.85;;;;;;;21.77;39.70;96869.66;10538492;28;20086;-72
2023/07/01 21:25:24;;;;;;;4.32;1.98;;;;;;;21.70;39.93;96875.28;10566046;28;20447;-72
2023/07/01 21:30:45;;;;;;;3.72;2.00;;;;;;;21.68;40.43;96880.22;10566414;28;20096;-72
2023/07/01 21:36:06;;;;;;;4.60;1.77;;;;;;;21.60;40.59;96880.13;10537943;28;20143;-72
2023/07/01 21:41:27;;;;;;;4.65;1.42;;;;;;;21.52;41.42;96892.16;10580395;28;20039;-72
2023/07/01 21:46:47;;;;;;;4.22;1.85;;;;;;;21.50;41.56;96882.88;10581263;28;20074;-72
2023/07/01 21:52:09;;;;;;;4.78;1.67;;;;;;;21.40;41.85;96887.03;10581105;28;20120;-72
2023/07/01 21:57:29;;;;;;;2.90;1.55;;;;;;;21.35;42.11;96887.69;10580845;28;20044;-72
2023/07/01 22:02:54;;;;;;;3.67;1.70;;;;;;;21.29;42.60;96885.47;10565695;28;20044;-72
2023/07/01 22:08:15;;;;;;;4.57;1.88;;;;;;;21.21;42.94;96890.31;10537350;28;20044;-73
2023/07/01 22:13:35;;;;;;;4.15;1.73;;;;;;;21.14;43.11;96881.03;10547873;28;20119;-72
2023/07/01 22:18:56;;;;;;;3.55;1.75;;;;;;;21.09;43.38;96883.09;10580404;28;20043;-72
2023/07/01 22:24:17;;;;;;;2.97;1.42;;;;;;;21.01;44.22;96888.66;10551064;28;20111;-72
2023/07/01 22:29:38;;;;;;;3.47;1.40;;;;;;;20.95;44.10;96891.44;10565287;28;20517;-73
2023/07/01 22:34:58;;;;;;;2.97;1.40;;;;;;;20.90;44.69;96883.53;10551175;28;20598;-73
2023/07/01 22:40:19;;;;;;;4.53;1.50;;;;;;;20.86;44.48;96878.53;10588088;28;20441;-73
2023/07/01 22:45:41;;;;;;;2.60;1.70;;;;;;;20.79;45.05;96883.41;10544797;28;20511;-72
2023/07/01 22:51:02;;;;;;;3.90;1.50;;;;;;;20.72;45.11;96887.56;10572926;28;20036;-73
2023/07/01 22:56:23;;;;;;;3.25;1.70;;;;;;;20.68;45.44;96890.34;10572360;28;20477;-73
2023/07/01 23:01:44;;;;;;;3.92;1.52;;;;;;;20.63;46.20;96886.00;10591885;22;20052;-75
2023/07/01 23:07:05;;;;;;;3.45;1.25;;;;;;;20.58;46.08;96884.53;10530069;28;20124;-75
2023/07/01 23:12:28;;;;;;;4.78;1.40;;;;;;;20.61;46.63;96888.81;10529549;28;20067;-75
2023/07/01 23:17:48;;;;;;;3.22;1.30;;;;;;;20.65;46.42;96882.47;10501941;28;20119;-73
2023/07/01 23:23:13;;;;;;;2.03;1.13;;;;;;;20.65;46.54;96876.81;10544188;28;20115;-75
2023/07/01 23:28:34;;;;;;;3.95;1.00;;;;;;;20.63;47.28;96876.78;10529218;28;20132;-72
2023/07/01 23:33:55;;;;;;;2.35;0.90;;;;;;;20.64;47.38;96881.75;10514866;28;20116;-75
2023/07/01 23:39:16;;;;;;;3.15;1.00;;;;;;;20.66;47.05;96873.31;10543434;28;20118;-75
2023/07/01 23:44:36;;;;;;;4.40;1.15;;;;;;;20.63;47.73;96871.81;10528451;28;20537;-72
2023/07/01 23:49:59;;;;;;;2.13;0.77;;;;;;;20.55;48.12;96874.53;10513238;28;20120;-74
2023/07/01 23:55:19;;;;;;;1.33;0.60;;;;;;;20.47;48.58;96885.78;10527952;28;20072;-72
